sensor_id;sensor_type;location;lat;lon;timestamp;P1;durP1;ratioP1;P2;durP2;ratioP2
8421;SDS011;4248;48.196;10.924;2024-03-02T00:00:20;19.40;;;11.30;;
8421;SDS011;4248;48.196;10.924;2024-03-02T00:02:48;25.83;;;14.70;;
8421;SDS011;4248;48.196;10.924;2024-03-02T00:05:16;16.20;;;10.50;;
8421;SDS011;4248;48.196;10.924;2024-03-02T00:07:44;16.23;;;10.93;;
8421;SDS011;4248;48.196;10.924;2024-03-02T00:10:12;15.50;;;10.57;;
8421;SDS011;4248;48.196;10.924;2024-03-02T00:12:41;19.70;;;11.73;;
8421;SDS011;4248;48.196;10.924;2024-03-02T00:15:21;16.47;;;11.03;;
8421;SDS011;4248;48.196;10.924;2024-03-02T00:17:55;17.23;;;13.17;;
8421;SDS011;4248;48.196;10.924;2024-03-02T00:20:21;17.00;;;12.20;;
8421;SDS011;4248;48.196;10.924;2024-03-02T00:22:48;18.60;;;11.10;;
8421;SDS011;4248;48.196;10.924;2024-03-02T00:25:14;19.27;;;12.40;;
8421;SDS011;4248;48.196;10.924;2024-03-02T00:27:39;17.40;;;11.37;;
8421;SDS011;4248;48.196;10.924;2024-03-02T00:33:07;19.47;;;12.17;;
8421;SDS011;4248;48.196;10.924;2024-03-02T00:35:33;19.83;;;13.00;;
8421;SDS011;4248;48.196;10.924;2024-03-02T00:38:03;19.30;;;12.47;;
8421;SDS011;4248;48.196;10.924;2024-03-02T00:40:32;20.63;;;12.20;;
8421;SDS011;4248;48.196;10.924;2024-03-02T00:42:58;16.87;;;10.70;;
8421;SDS011;4248;48.196;10.924;2024-03-02T00:45:24;16.80;;;11.60;;
8421;SDS011;4248;48.196;10.924;2024-03-02T00:47:51;17.03;;;10.67;;
8421;SDS011;4248;48.196;10.924;2024-03-02T00:50:17;19.23;;;12.10;;
8421;SDS011;4248;48.196;10.924;2024-03-02T00:52:43;16.00;;;11.87;;
8421;SDS011;4248;48.196;10.924;2024-03-02T00:55:08;14.70;;;10.20;;
8421;SDS011;4248;48.196;10.924;2024-03-02T00:57:34;15.97;;;10.83;;
8421;SDS011;4248;48.196;10.924;2024-03-02T01:00:00;14.97;;;10.47;;
8421;SDS011;4248;48.196;10.924;2024-03-02T01:02:26;15.30;;;10.40;;
8421;SDS011;4248;48.196;10.924;2024-03-02T01:04:51;16.83;;;10.83;;
8421;SDS011;4248;48.196;10.924;2024-03-02T01:07:17;15.23;;;9.90;;
8421;SDS011;4248;48.196;10.924;2024-03-02T01:09:42;14.47;;;9.83;;
8421;SDS011;4248;48.196;10.924;2024-03-02T01:12:08;16.00;;;10.43;;
8421;SDS011;4248;48.196;10.924;2024-03-02T01:14:34;15.30;;;10.93;;
8421;SDS011;4248;48.196;10.924;2024-03-02T01:17:00;12.77;;;9.23;;
8421;SDS011;4248;48.196;10.924;2024-03-02T01:19:28;19.43;;;9.80;;
8421;SDS011;4248;48.196;10.924;2024-03-02T01:21:54;14.07;;;9.93;;
8421;SDS011;4248;48.196;10.924;2024-03-02T01:24:19;13.87;;;10.00;;
8421;SDS011;4248;48.196;10.924;2024-03-02T01:26:45;14.47;;;10.17;;
8421;SDS011;4248;48.196;10.924;2024-03-02T01:29:10;15.93;;;10.00;;
8421;SDS011;4248;48.196;10.924;2024-03-02T01:31:36;15.20;;;10.30;;
8421;SDS011;4248;48.196;10.924;2024-03-02T01:34:01;14.00;;;10.00;;
8421;SDS011;4248;48.196;10.924;2024-03-02T01:36:27;17.10;;;11.10;;
8421;SDS011;4248;48.196;10.924;2024-03-02T01:38:53;14.40;;;10.10;;
8421;SDS011;4248;48.196;10.924;2024-03-02T01:41:18;17.43;;;11.20;;
8421;SDS011;4248;48.196;10.924;2024-03-02T01:43:43;17.33;;;11.40;;
8421;SDS011;4248;48.196;10.924;2024-03-02T01:46:09;14.60;;;10.93;;
8421;SDS011;4248;48.196;10.924;2024-03-02T01:48:35;19.20;;;10.57;;
8421;SDS011;4248;48.196;10.924;2024-03-02T01:51:00;16.40;;;11.30;;
8421;SDS011;4248;48.196;10.924;2024-03-02T01:53:26;16.57;;;11.17;;
8421;SDS011;4248;48.196;10.924;2024-03-02T01:55:51;17.70;;;11.30;;
8421;SDS011;4248;48.196;10.924;2024-03-02T01:58:17;14.40;;;10.67;;
8421;SDS011;4248;48.196;10.924;2024-03-02T02:00:43;16.27;;;11.40;;
8421;SDS011;4248;48.196;10.924;2024-03-02T02:03:09;17.10;;;11.30;;
8421;SDS011;4248;48.196;10.924;2024-03-02T02:05:35;14.27;;;11.10;;
8421;SDS011;4248;48.196;10.924;2024-03-02T02:08:01;16.37;;;10.83;;
8421;SDS011;4248;48.196;10.924;2024-03-02T02:10:26;18.67;;;10.63;;
8421;SDS011;4248;48.196;10.924;2024-03-02T02:12:52;14.97;;;11.07;;
8421;SDS011;4248;48.196;10.924;2024-03-02T02:15:21;18.03;;;11.90;;
8421;SDS011;4248;48.196;10.924;2024-03-02T02:17:57;13.67;;;10.30;;
8421;SDS011;4248;48.196;10.924;2024-03-02T02:20:23;16.00;;;11.60;;
8421;SDS011;4248;48.196;10.924;2024-03-02T02:22:56;15.50;;;11.40;;
8421;SDS011;4248;48.196;10.924;2024-03-02T02:25:23;16.37;;;11.60;;
8421;SDS011;4248;48.196;10.924;2024-03-02T02:27:48;17.00;;;11.83;;
8421;SDS011;4248;48.196;10.924;2024-03-02T02:30:17;14.37;;;10.63;;
8421;SDS011;4248;48.196;10.924;2024-03-02T02:32:46;14.00;;;10.03;;
8421;SDS011;4248;48.196;10.924;2024-03-02T02:35:11;13.90;;;9.90;;
8421;SDS011;4248;48.196;10.924;2024-03-02T02:37:37;15.40;;;9.70;;
8421;SDS011;4248;48.196;10.924;2024-03-02T02:40:04;14.50;;;10.40;;
8421;SDS011;4248;48.196;10.924;2024-03-02T02:42:30;13.17;;;9.00;;
8421;SDS011;4248;48.196;10.924;2024-03-02T02:44:55;13.93;;;10.00;;
8421;SDS011;4248;48.196;10.924;2024-03-02T02:47:21;20.20;;;10.23;;
8421;SDS011;4248;48.196;10.924;2024-03-02T02:49:46;15.20;;;10.13;;
8421;SDS011;4248;48.196;10.924;2024-03-02T02:52:12;13.30;;;9.87;;
8421;SDS011;4248;48.196;10.924;2024-03-02T02:54:37;20.93;;;10.67;;
8421;SDS011;4248;48.196;10.924;2024-03-02T02:57:03;14.77;;;11.40;;
8421;SDS011;4248;48.196;10.924;2024-03-02T02:59:28;16.10;;;11.30;;
8421;SDS011;4248;48.196;10.924;2024-03-02T03:01:54;14.40;;;10.90;;
8421;SDS011;4248;48.196;10.924;2024-03-02T03:04:19;18.63;;;10.60;;
8421;SDS011;4248;48.196;10.924;2024-03-02T03:06:45;14.77;;;11.00;;
8421;SDS011;4248;48.196;10.924;2024-03-02T03:09:11;19.60;;;12.00;;
8421;SDS011;4248;48.196;10.924;2024-03-02T03:11:36;15.70;;;10.93;;
8421;SDS011;4248;48.196;10.924;2024-03-02T03:14:02;14.37;;;10.63;;
8421;SDS011;4248;48.196;10.924;2024-03-02T03:16:30;15.63;;;10.97;;
8421;SDS011;4248;48.196;10.924;2024-03-02T03:18:55;15.60;;;11.40;;
8421;SDS011;4248;48.196;10.924;2024-03-02T03:21:21;16.67;;;11.13;;
8421;SDS011;4248;48.196;10.924;2024-03-02T03:23:46;14.13;;;10.47;;
8421;SDS011;4248;48.196;10.924;2024-03-02T03:26:12;15.20;;;10.30;;
8421;SDS011;4248;48.196;10.924;2024-03-02T03:28:38;14.30;;;11.00;;
8421;SDS011;4248;48.196;10.924;2024-03-02T03:31:03;15.80;;;11.50;;
8421;SDS011;4248;48.196;10.924;2024-03-02T03:33:29;16.43;;;11.30;;
8421;SDS011;4248;48.196;10.924;2024-03-02T03:35:55;15.53;;;11.00;;
8421;SDS011;4248;48.196;10.924;2024-03-02T03:38:20;17.27;;;11.03;;
8421;SDS011;4248;48.196;10.924;2024-03-02T03:40:46;16.00;;;11.03;;
8421;SDS011;4248;48.196;10.924;2024-03-02T03:43:12;15.93;;;11.80;;
8421;SDS011;4248;48.196;10.924;2024-03-02T03:45:38;17.03;;;11.70;;
8421;SDS011;4248;48.196;10.924;2024-03-02T03:48:03;16.83;;;11.40;;
8421;SDS011;4248;48.196;10.924;2024-03-02T03:50:29;14.70;;;10.00;;
8421;SDS011;4248;48.196;10.924;2024-03-02T03:52:55;14.20;;;10.90;;
8421;SDS011;4248;48.196;10.924;2024-03-02T03:55:20;11.70;;;8.20;;
8421;SDS011;4248;48.196;10.924;2024-03-02T03:57:46;12.47;;;8.60;;
8421;SDS011;4248;48.196;10.924;2024-03-02T04:00:11;13.23;;;9.83;;
8421;SDS011;4248;48.196;10.924;2024-03-02T04:02:37;12.63;;;9.13;;
8421;SDS011;4248;48.196;10.924;2024-03-02T04:05:04;20.00;;;9.63;;
8421;SDS011;4248;48.196;10.924;2024-03-02T04:07:33;11.67;;;9.10;;
8421;SDS011;4248;48.196;10.924;2024-03-02T04:10:08;12.10;;;9.20;;
8421;SDS011;4248;48.196;10.924;2024-03-02T04:12:36;13.70;;;9.53;;
8421;SDS011;4248;48.196;10.924;2024-03-02T04:15:02;12.17;;;9.30;;
8421;SDS011;4248;48.196;10.924;2024-03-02T04:17:32;15.13;;;9.27;;
8421;SDS011;4248;48.196;10.924;2024-03-02T04:19:58;16.00;;;9.73;;
8421;SDS011;4248;48.196;10.924;2024-03-02T04:22:24;14.57;;;10.20;;
8421;SDS011;4248;48.196;10.924;2024-03-02T04:24:51;13.17;;;10.10;;
8421;SDS011;4248;48.196;10.924;2024-03-02T04:27:16;15.20;;;10.30;;
8421;SDS011;4248;48.196;10.924;2024-03-02T04:29:42;15.43;;;10.77;;
8421;SDS011;4248;48.196;10.924;2024-03-02T04:32:07;13.00;;;10.40;;
8421;SDS011;4248;48.196;10.924;2024-03-02T04:34:33;15.70;;;11.37;;
8421;SDS011;4248;48.196;10.924;2024-03-02T04:36:58;15.80;;;10.70;;
8421;SDS011;4248;48.196;10.924;2024-03-02T04:39:24;14.07;;;10.90;;
8421;SDS011;4248;48.196;10.924;2024-03-02T04:41:50;15.07;;;11.20;;
8421;SDS011;4248;48.196;10.924;2024-03-02T04:44:15;15.57;;;11.30;;
8421;SDS011;4248;48.196;10.924;2024-03-02T04:46:41;15.70;;;11.00;;
8421;SDS011;4248;48.196;10.924;2024-03-02T04:49:06;12.90;;;9.60;;
8421;SDS011;4248;48.196;10.924;2024-03-02T04:51:32;12.00;;;8.90;;
8421;SDS011;4248;48.196;10.924;2024-03-02T04:53:57;13.23;;;10.10;;
8421;SDS011;4248;48.196;10.924;2024-03-02T04:56:23;12.87;;;9.43;;
8421;SDS011;4248;48.196;10.924;2024-03-02T04:58:51;12.10;;;9.40;;
8421;SDS011;4248;48.196;10.924;2024-03-02T05:01:16;11.57;;;7.83;;
8421;SDS011;4248;48.196;10.924;2024-03-02T05:03:42;12.63;;;8.30;;
8421;SDS011;4248;48.196;10.924;2024-03-02T05:06:08;12.33;;;9.07;;
8421;SDS011;4248;48.196;10.924;2024-03-02T05:08:33;10.93;;;8.70;;
8421;SDS011;4248;48.196;10.924;2024-03-02T05:10:59;10.93;;;8.10;;
8421;SDS011;4248;48.196;10.924;2024-03-02T05:13:44;13.20;;;8.90;;
8421;SDS011;4248;48.196;10.924;2024-03-02T05:16:10;13.47;;;9.20;;
8421;SDS011;4248;48.196;10.924;2024-03-02T05:18:37;13.73;;;9.50;;
8421;SDS011;4248;48.196;10.924;2024-03-02T05:21:03;15.53;;;10.47;;
8421;SDS011;4248;48.196;10.924;2024-03-02T05:23:28;16.03;;;10.83;;
8421;SDS011;4248;48.196;10.924;2024-03-02T05:25:54;15.27;;;10.83;;
8421;SDS011;4248;48.196;10.924;2024-03-02T05:28:19;14.80;;;10.80;;
8421;SDS011;4248;48.196;10.924;2024-03-02T05:30:45;17.67;;;11.30;;
8421;SDS011;4248;48.196;10.924;2024-03-02T05:33:11;15.23;;;10.40;;
8421;SDS011;4248;48.196;10.924;2024-03-02T05:35:36;15.50;;;10.83;;
8421;SDS011;4248;48.196;10.924;2024-03-02T05:38:02;17.30;;;11.17;;
8421;SDS011;4248;48.196;10.924;2024-03-02T05:40:28;17.77;;;11.70;;
8421;SDS011;4248;48.196;10.924;2024-03-02T05:42:53;17.00;;;12.20;;
8421;SDS011;4248;48.196;10.924;2024-03-02T05:45:19;18.57;;;12.27;;
8421;SDS011;4248;48.196;10.924;2024-03-02T05:47:44;16.00;;;11.53;;
8421;SDS011;4248;48.196;10.924;2024-03-02T05:50:10;20.27;;;12.30;;
8421;SDS011;4248;48.196;10.924;2024-03-02T05:52:35;20.20;;;12.70;;
8421;SDS011;4248;48.196;10.924;2024-03-02T05:55:01;66.50;;;36.77;;
8421;SDS011;4248;48.196;10.924;2024-03-02T05:57:26;112.37;;;55.87;;
8421;SDS011;4248;48.196;10.924;2024-03-02T06:00:04;51.03;;;29.03;;
8421;SDS011;4248;48.196;10.924;2024-03-02T06:02:33;20.80;;;12.83;;
8421;SDS011;4248;48.196;10.924;2024-03-02T06:05:00;19.83;;;13.77;;
8421;SDS011;4248;48.196;10.924;2024-03-02T06:07:25;24.00;;;13.17;;
8421;SDS011;4248;48.196;10.924;2024-03-02T06:09:51;19.50;;;14.17;;
8421;SDS011;4248;48.196;10.924;2024-03-02T06:12:17;21.47;;;13.90;;
8421;SDS011;4248;48.196;10.924;2024-03-02T06:14:43;19.83;;;13.63;;
8421;SDS011;4248;48.196;10.924;2024-03-02T06:17:09;19.07;;;13.00;;
8421;SDS011;4248;48.196;10.924;2024-03-02T06:19:34;19.80;;;13.10;;
8421;SDS011;4248;48.196;10.924;2024-03-02T06:22:00;25.30;;;15.27;;
8421;SDS011;4248;48.196;10.924;2024-03-02T06:24:25;20.93;;;14.13;;
8421;SDS011;4248;48.196;10.924;2024-03-02T06:26:51;22.50;;;13.70;;
8421;SDS011;4248;48.196;10.924;2024-03-02T06:29:17;18.10;;;13.23;;
8421;SDS011;4248;48.196;10.924;2024-03-02T06:31:42;19.53;;;12.67;;
8421;SDS011;4248;48.196;10.924;2024-03-02T06:34:08;17.63;;;12.00;;
8421;SDS011;4248;48.196;10.924;2024-03-02T06:36:34;17.07;;;12.20;;
8421;SDS011;4248;48.196;10.924;2024-03-02T06:38:59;17.97;;;12.20;;
8421;SDS011;4248;48.196;10.924;2024-03-02T06:41:25;15.23;;;10.80;;
8421;SDS011;4248;48.196;10.924;2024-03-02T06:43:51;15.30;;;10.57;;
8421;SDS011;4248;48.196;10.924;2024-03-02T06:46:24;14.40;;;10.53;;
8421;SDS011;4248;48.196;10.924;2024-03-02T06:48:50;15.27;;;9.80;;
8421;SDS011;4248;48.196;10.924;2024-03-02T06:51:15;15.43;;;9.80;;
8421;SDS011;4248;48.196;10.924;2024-03-02T06:53:41;13.00;;;8.80;;
8421;SDS011;4248;48.196;10.924;2024-03-02T06:56:07;13.10;;;9.30;;
8421;SDS011;4248;48.196;10.924;2024-03-02T06:58:36;14.97;;;10.23;;
8421;SDS011;4248;48.196;10.924;2024-03-02T07:01:01;12.90;;;9.13;;
8421;SDS011;4248;48.196;10.924;2024-03-02T07:03:27;13.00;;;9.40;;
8421;SDS011;4248;48.196;10.924;2024-03-02T07:05:52;13.87;;;9.53;;
8421;SDS011;4248;48.196;10.924;2024-03-02T07:08:18;12.40;;;9.00;;
8421;SDS011;4248;48.196;10.924;2024-03-02T07:10:43;12.37;;;8.90;;
8421;SDS011;4248;48.196;10.924;2024-03-02T07:13:09;13.27;;;9.37;;
8421;SDS011;4248;48.196;10.924;2024-03-02T07:15:34;12.33;;;9.03;;
8421;SDS011;4248;48.196;10.924;2024-03-02T07:18:29;12.87;;;8.90;;
8421;SDS011;4248;48.196;10.924;2024-03-02T07:21:09;11.77;;;8.43;;
8421;SDS011;4248;48.196;10.924;2024-03-02T07:23:36;11.17;;;9.00;;
8421;SDS011;4248;48.196;10.924;2024-03-02T07:26:01;9.80;;;7.47;;
8421;SDS011;4248;48.196;10.924;2024-03-02T07:28:28;11.40;;;7.50;;
8421;SDS011;4248;48.196;10.924;2024-03-02T07:30:57;13.83;;;7.63;;
8421;SDS011;4248;48.196;10.924;2024-03-02T07:33:26;12.57;;;8.00;;
8421;SDS011;4248;48.196;10.924;2024-03-02T07:35:53;11.40;;;7.80;;
8421;SDS011;4248;48.196;10.924;2024-03-02T07:38:19;9.57;;;6.90;;
8421;SDS011;4248;48.196;10.924;2024-03-02T07:40:45;9.37;;;6.73;;
8421;SDS011;4248;48.196;10.924;2024-03-02T07:43:18;9.10;;;6.20;;
8421;SDS011;4248;48.196;10.924;2024-03-02T07:45:44;9.30;;;6.10;;
8421;SDS011;4248;48.196;10.924;2024-03-02T07:48:10;10.43;;;6.27;;
8421;SDS011;4248;48.196;10.924;2024-03-02T07:50:36;8.17;;;6.30;;
8421;SDS011;4248;48.196;10.924;2024-03-02T07:53:02;7.53;;;5.83;;
8421;SDS011;4248;48.196;10.924;2024-03-02T07:55:29;7.80;;;5.90;;
8421;SDS011;4248;48.196;10.924;2024-03-02T07:57:56;8.20;;;6.10;;
8421;SDS011;4248;48.196;10.924;2024-03-02T08:00:22;8.20;;;6.70;;
8421;SDS011;4248;48.196;10.924;2024-03-02T08:02:48;7.83;;;5.60;;
8421;SDS011;4248;48.196;10.924;2024-03-02T08:05:16;7.17;;;5.60;;
8421;SDS011;4248;48.196;10.924;2024-03-02T08:07:44;7.50;;;5.73;;
8421;SDS011;4248;48.196;10.924;2024-03-02T08:10:10;8.03;;;5.97;;
8421;SDS011;4248;48.196;10.924;2024-03-02T08:12:36;6.97;;;5.40;;
8421;SDS011;4248;48.196;10.924;2024-03-02T08:15:01;10.73;;;6.00;;
8421;SDS011;4248;48.196;10.924;2024-03-02T08:17:27;6.73;;;5.43;;
8421;SDS011;4248;48.196;10.924;2024-03-02T08:19:52;7.23;;;5.20;;
8421;SDS011;4248;48.196;10.924;2024-03-02T08:22:19;6.87;;;4.90;;
8421;SDS011;4248;48.196;10.924;2024-03-02T08:24:44;6.17;;;4.60;;
8421;SDS011;4248;48.196;10.924;2024-03-02T08:27:10;7.80;;;4.90;;
8421;SDS011;4248;48.196;10.924;2024-03-02T08:29:37;5.90;;;4.40;;
8421;SDS011;4248;48.196;10.924;2024-03-02T08:32:02;6.03;;;4.60;;
8421;SDS011;4248;48.196;10.924;2024-03-02T08:34:28;6.37;;;4.30;;
8421;SDS011;4248;48.196;10.924;2024-03-02T08:36:55;7.57;;;4.73;;
8421;SDS011;4248;48.196;10.924;2024-03-02T08:39:20;6.33;;;4.10;;
8421;SDS011;4248;48.196;10.924;2024-03-02T08:41:46;6.10;;;4.30;;
8421;SDS011;4248;48.196;10.924;2024-03-02T08:44:13;5.50;;;4.10;;
8421;SDS011;4248;48.196;10.924;2024-03-02T08:46:39;5.33;;;3.90;;
8421;SDS011;4248;48.196;10.924;2024-03-02T08:49:05;5.90;;;4.23;;
8421;SDS011;4248;48.196;10.924;2024-03-02T08:51:31;8.90;;;4.23;;
8421;SDS011;4248;48.196;10.924;2024-03-02T08:53:57;5.10;;;3.40;;
8421;SDS011;4248;48.196;10.924;2024-03-02T08:56:23;5.70;;;3.23;;
8421;SDS011;4248;48.196;10.924;2024-03-02T08:58:49;5.40;;;3.77;;
8421;SDS011;4248;48.196;10.924;2024-03-02T09:01:15;5.13;;;3.30;;
8421;SDS011;4248;48.196;10.924;2024-03-02T09:03:42;4.20;;;2.90;;
8421;SDS011;4248;48.196;10.924;2024-03-02T09:06:11;4.10;;;3.00;;
8421;SDS011;4248;48.196;10.924;2024-03-02T09:08:38;4.80;;;3.50;;
8421;SDS011;4248;48.196;10.924;2024-03-02T09:11:04;5.83;;;3.43;;
8421;SDS011;4248;48.196;10.924;2024-03-02T09:13:31;3.60;;;2.57;;
8421;SDS011;4248;48.196;10.924;2024-03-02T09:15:57;8.10;;;3.87;;
8421;SDS011;4248;48.196;10.924;2024-03-02T09:18:23;4.50;;;2.63;;
8421;SDS011;4248;48.196;10.924;2024-03-02T09:20:48;4.30;;;3.07;;
8421;SDS011;4248;48.196;10.924;2024-03-02T09:23:14;5.70;;;3.40;;
8421;SDS011;4248;48.196;10.924;2024-03-02T09:25:40;4.90;;;2.80;;
8421;SDS011;4248;48.196;10.924;2024-03-02T09:28:05;3.80;;;2.63;;
8421;SDS011;4248;48.196;10.924;2024-03-02T09:30:32;3.73;;;2.03;;
8421;SDS011;4248;48.196;10.924;2024-03-02T09:32:57;6.27;;;2.60;;
8421;SDS011;4248;48.196;10.924;2024-03-02T09:35:23;3.13;;;2.20;;
8421;SDS011;4248;48.196;10.924;2024-03-02T09:37:49;4.27;;;2.77;;
8421;SDS011;4248;48.196;10.924;2024-03-02T09:40:15;5.03;;;3.20;;
8421;SDS011;4248;48.196;10.924;2024-03-02T09:42:41;7.13;;;3.50;;
8421;SDS011;4248;48.196;10.924;2024-03-02T09:45:08;7.50;;;4.97;;
8421;SDS011;4248;48.196;10.924;2024-03-02T09:47:34;9.30;;;4.83;;
8421;SDS011;4248;48.196;10.924;2024-03-02T09:50:00;8.47;;;5.47;;
8421;SDS011;4248;48.196;10.924;2024-03-02T09:52:25;5.20;;;3.30;;
8421;SDS011;4248;48.196;10.924;2024-03-02T09:54:51;4.70;;;2.70;;
8421;SDS011;4248;48.196;10.924;2024-03-02T09:57:16;5.00;;;2.90;;
8421;SDS011;4248;48.196;10.924;2024-03-02T09:59:42;5.03;;;3.20;;
8421;SDS011;4248;48.196;10.924;2024-03-02T10:02:08;4.93;;;2.97;;
8421;SDS011;4248;48.196;10.924;2024-03-02T10:04:33;4.10;;;2.37;;
8421;SDS011;4248;48.196;10.924;2024-03-02T10:09:47;4.67;;;1.90;;
8421;SDS011;4248;48.196;10.924;2024-03-02T10:12:14;5.80;;;1.57;;
8421;SDS011;4248;48.196;10.924;2024-03-02T10:14:41;5.23;;;2.03;;
8421;SDS011;4248;48.196;10.924;2024-03-02T10:17:08;3.50;;;1.77;;
8421;SDS011;4248;48.196;10.924;2024-03-02T10:19:35;2.67;;;1.73;;
8421;SDS011;4248;48.196;10.924;2024-03-02T10:22:02;4.23;;;2.27;;
8421;SDS011;4248;48.196;10.924;2024-03-02T10:24:37;3.73;;;1.87;;
8421;SDS011;4248;48.196;10.924;2024-03-02T10:27:16;2.63;;;1.67;;
8421;SDS011;4248;48.196;10.924;2024-03-02T10:29:45;3.83;;;2.10;;
8421;SDS011;4248;48.196;10.924;2024-03-02T10:32:11;4.00;;;1.60;;
8421;SDS011;4248;48.196;10.924;2024-03-02T10:34:39;4.50;;;2.70;;
8421;SDS011;4248;48.196;10.924;2024-03-02T10:37:06;3.50;;;2.13;;
8421;SDS011;4248;48.196;10.924;2024-03-02T10:39:32;4.63;;;1.83;;
8421;SDS011;4248;48.196;10.924;2024-03-02T10:42:00;2.40;;;1.43;;
8421;SDS011;4248;48.196;10.924;2024-03-02T10:44:28;4.27;;;2.30;;
8421;SDS011;4248;48.196;10.924;2024-03-02T10:46:55;3.70;;;2.37;;
8421;SDS011;4248;48.196;10.924;2024-03-02T10:49:22;4.83;;;2.90;;
8421;SDS011;4248;48.196;10.924;2024-03-02T10:51:49;4.20;;;2.40;;
8421;SDS011;4248;48.196;10.924;2024-03-02T10:54:15;4.27;;;2.10;;
8421;SDS011;4248;48.196;10.924;2024-03-02T10:56:41;4.33;;;2.20;;
8421;SDS011;4248;48.196;10.924;2024-03-02T10:59:31;5.63;;;2.13;;
8421;SDS011;4248;48.196;10.924;2024-03-02T11:01:59;7.67;;;1.97;;
8421;SDS011;4248;48.196;10.924;2024-03-02T11:04:28;3.90;;;2.10;;
8421;SDS011;4248;48.196;10.924;2024-03-02T11:06:58;2.60;;;1.60;;
8421;SDS011;4248;48.196;10.924;2024-03-02T11:09:29;5.63;;;1.60;;
8421;SDS011;4248;48.196;10.924;2024-03-02T11:14:58;3.47;;;1.47;;
8421;SDS011;4248;48.196;10.924;2024-03-02T11:17:25;4.10;;;1.57;;
8421;SDS011;4248;48.196;10.924;2024-03-02T11:19:52;4.20;;;1.80;;
8421;SDS011;4248;48.196;10.924;2024-03-02T11:22:18;4.00;;;2.10;;
8421;SDS011;4248;48.196;10.924;2024-03-02T11:24:47;5.33;;;2.30;;
8421;SDS011;4248;48.196;10.924;2024-03-02T11:32:58;4.70;;;3.03;;
8421;SDS011;4248;48.196;10.924;2024-03-02T11:35:27;5.67;;;3.70;;
8421;SDS011;4248;48.196;10.924;2024-03-02T11:37:54;6.70;;;3.70;;
8421;SDS011;4248;48.196;10.924;2024-03-02T11:40:22;7.83;;;5.10;;
8421;SDS011;4248;48.196;10.924;2024-03-02T11:42:49;6.93;;;4.37;;
8421;SDS011;4248;48.196;10.924;2024-03-02T11:45:22;7.10;;;4.80;;
8421;SDS011;4248;48.196;10.924;2024-03-02T11:47:51;12.83;;;6.13;;
8421;SDS011;4248;48.196;10.924;2024-03-02T11:52:58;8.30;;;5.67;;
8421;SDS011;4248;48.196;10.924;2024-03-02T11:55:25;8.03;;;6.00;;
8421;SDS011;4248;48.196;10.924;2024-03-02T11:57:54;8.53;;;6.03;;
8421;SDS011;4248;48.196;10.924;2024-03-02T12:00:20;10.40;;;5.10;;
8421;SDS011;4248;48.196;10.924;2024-03-02T12:02:47;7.90;;;4.93;;
8421;SDS011;4248;48.196;10.924;2024-03-02T12:05:25;8.03;;;5.13;;
8421;SDS011;4248;48.196;10.924;2024-03-02T12:07:56;8.73;;;5.27;;
8421;SDS011;4248;48.196;10.924;2024-03-02T12:10:23;8.20;;;5.80;;
8421;SDS011;4248;48.196;10.924;2024-03-02T12:12:54;10.50;;;6.80;;
8421;SDS011;4248;48.196;10.924;2024-03-02T12:15:22;11.30;;;6.80;;
8421;SDS011;4248;48.196;10.924;2024-03-02T12:17:55;9.57;;;7.00;;
8421;SDS011;4248;48.196;10.924;2024-03-02T12:20:22;14.13;;;8.27;;
8421;SDS011;4248;48.196;10.924;2024-03-02T12:22:52;16.63;;;8.90;;
8421;SDS011;4248;48.196;10.924;2024-03-02T12:25:22;10.97;;;7.17;;
8421;SDS011;4248;48.196;10.924;2024-03-02T12:27:50;16.23;;;9.00;;
8421;SDS011;4248;48.196;10.924;2024-03-02T12:30:16;17.10;;;8.87;;
8421;SDS011;4248;48.196;10.924;2024-03-02T12:32:43;13.70;;;8.30;;
8421;SDS011;4248;48.196;10.924;2024-03-02T12:35:12;13.90;;;8.50;;
8421;SDS011;4248;48.196;10.924;2024-03-02T12:37:44;15.47;;;9.60;;
8421;SDS011;4248;48.196;10.924;2024-03-02T12:40:11;16.13;;;8.77;;
8421;SDS011;4248;48.196;10.924;2024-03-02T12:42:41;13.13;;;8.53;;
8421;SDS011;4248;48.196;10.924;2024-03-02T12:45:07;14.43;;;9.67;;
8421;SDS011;4248;48.196;10.924;2024-03-02T12:47:34;13.20;;;8.50;;
8421;SDS011;4248;48.196;10.924;2024-03-02T12:50:00;13.63;;;8.40;;
8421;SDS011;4248;48.196;10.924;2024-03-02T12:52:26;15.50;;;9.90;;
8421;SDS011;4248;48.196;10.924;2024-03-02T12:54:51;12.83;;;8.53;;
8421;SDS011;4248;48.196;10.924;2024-03-02T12:57:20;14.73;;;8.00;;
8421;SDS011;4248;48.196;10.924;2024-03-02T12:59:46;13.10;;;8.87;;
8421;SDS011;4248;48.196;10.924;2024-03-02T13:02:19;14.73;;;8.97;;
8421;SDS011;4248;48.196;10.924;2024-03-02T13:04:50;15.20;;;9.00;;
8421;SDS011;4248;48.196;10.924;2024-03-02T13:07:19;13.53;;;8.90;;
8421;SDS011;4248;48.196;10.924;2024-03-02T13:09:47;13.20;;;9.37;;
8421;SDS011;4248;48.196;10.924;2024-03-02T13:12:14;11.97;;;8.20;;
8421;SDS011;4248;48.196;10.924;2024-03-02T13:14:41;12.20;;;7.40;;
8421;SDS011;4248;48.196;10.924;2024-03-02T13:17:08;10.93;;;7.33;;
8421;SDS011;4248;48.196;10.924;2024-03-02T13:19:43;15.57;;;7.57;;
8421;SDS011;4248;48.196;10.924;2024-03-02T13:22:18;13.40;;;7.80;;
8421;SDS011;4248;48.196;10.924;2024-03-02T13:24:44;14.20;;;7.53;;
8421;SDS011;4248;48.196;10.924;2024-03-02T13:27:09;13.37;;;8.23;;
8421;SDS011;4248;48.196;10.924;2024-03-02T13:29:35;14.37;;;8.43;;
8421;SDS011;4248;48.196;10.924;2024-03-02T13:32:01;15.40;;;8.60;;
8421;SDS011;4248;48.196;10.924;2024-03-02T13:34:26;14.00;;;8.23;;
8421;SDS011;4248;48.196;10.924;2024-03-02T13:36:52;14.17;;;8.77;;
8421;SDS011;4248;48.196;10.924;2024-03-02T13:39:17;16.20;;;9.60;;
8421;SDS011;4248;48.196;10.924;2024-03-02T13:41:43;20.43;;;10.07;;
8421;SDS011;4248;48.196;10.924;2024-03-02T13:44:17;16.27;;;9.70;;
8421;SDS011;4248;48.196;10.924;2024-03-02T13:46:42;22.20;;;9.67;;
8421;SDS011;4248;48.196;10.924;2024-03-02T13:49:10;19.20;;;10.70;;
8421;SDS011;4248;48.196;10.924;2024-03-02T13:51:36;18.83;;;10.23;;
8421;SDS011;4248;48.196;10.924;2024-03-02T13:54:02;20.53;;;11.60;;
8421;SDS011;4248;48.196;10.924;2024-03-02T13:56:28;16.90;;;10.37;;
8421;SDS011;4248;48.196;10.924;2024-03-02T13:58:54;17.57;;;11.40;;
8421;SDS011;4248;48.196;10.924;2024-03-02T14:01:20;19.77;;;11.60;;
8421;SDS011;4248;48.196;10.924;2024-03-02T14:03:46;21.27;;;12.27;;
8421;SDS011;4248;48.196;10.924;2024-03-02T14:06:11;24.90;;;12.03;;
8421;SDS011;4248;48.196;10.924;2024-03-02T14:08:37;20.30;;;12.47;;
8421;SDS011;4248;48.196;10.924;2024-03-02T14:11:03;21.13;;;12.47;;
8421;SDS011;4248;48.196;10.924;2024-03-02T14:13:28;19.67;;;11.60;;
8421;SDS011;4248;48.196;10.924;2024-03-02T14:15:54;24.50;;;13.30;;
8421;SDS011;4248;48.196;10.924;2024-03-02T14:18:20;23.80;;;12.40;;
8421;SDS011;4248;48.196;10.924;2024-03-02T14:20:46;23.37;;;13.23;;
8421;SDS011;4248;48.196;10.924;2024-03-02T14:23:17;26.20;;;15.20;;
8421;SDS011;4248;48.196;10.924;2024-03-02T14:25:45;27.80;;;14.63;;
8421;SDS011;4248;48.196;10.924;2024-03-02T14:28:11;25.77;;;14.77;;
8421;SDS011;4248;48.196;10.924;2024-03-02T14:30:37;23.30;;;12.63;;
8421;SDS011;4248;48.196;10.924;2024-03-02T14:33:03;26.80;;;14.27;;
8421;SDS011;4248;48.196;10.924;2024-03-02T14:35:28;22.17;;;13.30;;
8421;SDS011;4248;48.196;10.924;2024-03-02T14:37:54;21.87;;;13.30;;
8421;SDS011;4248;48.196;10.924;2024-03-02T14:40:22;22.80;;;12.97;;
8421;SDS011;4248;48.196;10.924;2024-03-02T14:42:50;21.87;;;13.30;;
8421;SDS011;4248;48.196;10.924;2024-03-02T14:45:16;22.27;;;12.50;;
8421;SDS011;4248;48.196;10.924;2024-03-02T14:47:41;18.80;;;11.63;;
8421;SDS011;4248;48.196;10.924;2024-03-02T14:50:07;29.03;;;13.10;;
8421;SDS011;4248;48.196;10.924;2024-03-02T14:52:34;19.60;;;12.60;;
8421;SDS011;4248;48.196;10.924;2024-03-02T14:55:00;19.50;;;11.83;;
8421;SDS011;4248;48.196;10.924;2024-03-02T14:57:27;19.60;;;10.90;;
8421;SDS011;4248;48.196;10.924;2024-03-02T14:59:53;19.13;;;11.80;;